Justin Clasie

Jefe de ojeadores - Twente
13 Jun 2027
Domingo
Continuar

Personalidad

Adaptabilidad (2) Ambición (8) Controversia (1) Lealtad (17) Presión (16) Profesionalismo (3) Deportividad (2) Temperamento (8)

Perfil

Estilo de dirección Democrático
Licencia Continental B
Determinación 5
Gestión de personas 14
Motivación 9
Disciplina 6
Satisfacción laboral
63%
Fatiga
0%
Cargo Jefe de ojeadores
Salario 37.7K p/s
Contrato 14.03.2029

Rendimiento

Comportamiento Bueno
Efectividad del entrenamiento
24%
Desarrollo de jugadores
50%
Prevención de lesiones
30%
Implementación táctica
30%

Eventos recientes

Evaluó a un jugador ahora
Asistió a una reunión de captación ahora
Evaluó a un jugador ahora
Evaluó a un jugador ahora
Evaluó a un jugador ahora
Evaluó a un jugador 7d atrás
Evaluó a un jugador 7d atrás
Presentó un informe a la directiva 7d atrás

Actualmente siguiendo

95
Jugador Club Estado Habilidad Confianza Observado Última observación Último voto
Raúl Rangel Guadalajara Activo 140 / 135 40% 3 12.06.2027 -
Federico Viñas Toluca Activo 147 / 127 40% 2 12.06.2027 -
Myron van Brederode KV Mechelen Activo 132 / 124 40% 2 12.06.2027 -
Sam Tickle Wigan Athletic Activo 144 / 132 40% 1 12.06.2027 -
Elías Rafn Ólafsson FC Midtjylland Activo 119 / 127 40% 1 11.06.2027 -
Jerónimo Pourtau Temperley Activo 101 / 115 40% 1 11.06.2027 -
Hugo Cuypers Monterrey Activo 131 / 132 40% 2 09.06.2027 -
Ousmane Camara Castellón Activo 109 / 121 40% 2 09.06.2027 -
Henrik Meister Pisa Activo 122 / 125 40% 1 08.06.2027 -
Juninho Pumas UNAM Activo 127 / 126 40% 1 08.06.2027 -
Mamadou Doumbia Watford Activo 121 / 128 40% 1 07.06.2027 -
Alexandr Sobolev Zenit Activo 127 / 130 40% 1 07.06.2027 -
Sławomir Abramowicz Jagiellonia Activo 140 / 131 40% 1 06.06.2027 -
Ľubomír Belko Viking Activo 112 / 127 40% 1 06.06.2027 -
Mohamed Moussa Koïta Persik Activo 115 / 103 40% 1 06.06.2027 -
Baron Ochieng Zamalek Activo 76 / 94 40% 1 06.06.2027 -
Pep Biel Monterrey Activo 127 / 125 40% 1 06.06.2027 -
Sinclair Armstrong Bristol City Activo 130 / 119 40% 1 05.06.2027 -
Federico Girotti Guadalajara Activo 136 / 127 40% 1 04.06.2027 -
Sebastiano Dalla Costa Black Aces Activo 115 / 113 40% 1 04.06.2027 -
Mauricio Amaro Atlanta United FC Activo 116 / 127 40% 1 03.06.2027 -
Joe Johnson Luton Town Activo 88 / 108 40% 1 03.06.2027 -
Dom Ballard Leyton Orient Activo 123 / 127 40% 2 31.01.2027 -
François Kamano Sochi Activo 131 / 115 40% 1 31.01.2027 -
Jonmi Magunagoitia Eibar Activo 131 / 125 40% 1 31.01.2027 -
Florián Monzón Atlas Activo 134 / 129 40% 2 29.01.2027 -
Miguel De la Fuente Almería Activo 128 / 117 40% 1 29.01.2027 -
Mario Soberón Albacete Activo 119 / 117 40% 1 28.01.2027 -
Maksim Samorodov Akhmat Grozny Activo 137 / 117 40% 1 28.01.2027 -
Josh Coburn Millwall Activo 112 / 117 40% 1 26.01.2027 -
Cédric Don Maccabi Haifa Activo 102 / 125 40% 1 26.01.2027 -
Vanja Dragojević Partizan Activo 100 / 124 40% 1 26.01.2027 -
Halam Loboa Osasuna Activo 127 / 126 40% 1 26.01.2027 -
Ion Nicolăescu Maccabi Tel Aviv Activo 107 / 109 40% 1 24.01.2027 -
Negueba Mirassol Activo 140 / 128 40% 1 24.01.2027 -
Chuchu Ramírez Nacional Activo 130 / 126 40% 1 23.01.2027 -
Ibrahima Koné Almería Activo 135 / 121 40% 1 23.01.2027 -
Claudio Spinelli Vasco da Gama Activo 125 / 131 40% 1 22.01.2027 -
Tamble Monteiro Rio Ave Activo 132 / 121 40% 1 22.01.2027 -
Rey Manaj Sivasspor Activo 130 / 132 40% 1 21.01.2027 -
Daniil Khudyakov Sturm Graz Activo 124 / 123 40% 1 21.01.2027 -
Brian White Queens Park Rangers Activo 110 / 119 40% 2 19.01.2027 -
Ismael Díaz Leon Activo 137 / 128 40% 1 19.01.2027 -
Chris Ramos Botafogo Activo 114 / 124 40% 1 18.01.2027 -
Ignacio Russo Tigre Activo 142 / 119 40% 1 18.01.2027 -
Felipe Zenobio Tigre Activo 142 / 132 40% 2 17.01.2027 -
Edoardo Motta Lazio Activo 108 / 124 40% 1 17.01.2027 -
Bernardo Fontes Braga Activo 138 / 130 40% 3 15.01.2027 -
Juan Manuel Boselli Krasnodar Activo 111 / 128 40% 1 15.01.2027 -
Lazar Carević Famalicao Activo 133 / 132 40% 1 15.01.2027 -
Rome-Jayden Owusu-Oduro Ajax Activo 143 / 131 40% 1 14.01.2027 -
Mourad Tijuana Activo 131 / 123 40% 1 13.01.2027 -
Dardan Shabanhaxhaj Rubin Activo 102 / 110 40% 1 13.01.2027 -
Nathan Fogaça Fortaleza Activo 131 / 122 40% 2 12.01.2027 -
Lorent Tolaj Plymouth Argyle Activo 110 / 122 40% 1 12.01.2027 -
Santiago Grella Unión de Santa Fe Activo 88 / 120 40% 1 12.01.2027 -
Diego Romero Universitario Activo 109 / 128 40% 1 10.01.2027 -
Andreas Jungdal Westerlo Activo 110 / 119 40% 1 10.01.2027 -
Sergio Rangel La Equidad Activo 138 / 130 40% 1 09.01.2027 -
Gabriel Taliari Rio Ave Activo 122 / 123 40% 1 09.01.2027 -
Rodrygo Rangel Veracruz Activo 154 / 129 40% 1 05.01.2027 -
Pedro Raul Corinthians Activo 136 / 127 40% 1 04.01.2027 -
Ştefan Târnovanu FCSB Activo 113 / 119 40% 1 04.01.2027 -
Gabriel Brazão Santos Activo 134 / 129 40% 1 03.01.2027 -
Ozziel Herrera Tigres Activo 113 / 122 40% 2 30.08.2026 -
Daniel Valencia America de Cali Activo 138 / 121 40% 1 30.08.2026 -
Enzo Copetti Rosario Central Activo 111 / 120 40% 2 29.08.2026 -
Carlton Morris Derby County Activo 117 / 120 40% 1 28.08.2026 -
Anthony Patterson Wrexham Activo 129 / 125 40% 1 28.08.2026 -
Lois Mignolet Racing Genk Activo 121 / 138 40% 1 27.08.2026 -
Marvin Keller Young Boys Activo 133 / 133 40% 1 25.08.2026 -
Pascal Loretz Luzern Activo 135 / 124 40% 1 25.08.2026 -
Morgan Guilavogui Real Salt Lake Activo 125 / 128 40% 1 23.08.2026 -
Alfredo Morelos Atletico Nacional Activo 114 / 118 40% 1 23.08.2026 -
Rafael Santos Borré River Plate Activo 147 / 124 40% 1 22.08.2026 -
Kwadwo Duah Ludogorets Activo 122 / 127 40% 1 22.08.2026 -
Edwuin Cetré Estudiantes Activo 108 / 129 40% 1 21.08.2026 -
Kyriani Sabbe Club Brugge Activo 125 / 120 40% 1 20.08.2026 -
Marco Oroná Antofagasta Activo 81 / 99 40% 1 20.08.2026 -
Mirlind Daku Spartak Moscow Activo 109 / 132 40% 1 20.08.2026 -
Luciano Cosentino Vegalta Sendai Activo 104 / 120 40% 1 19.08.2026 -
Diego Rossi Monterrey Activo 154 / 128 40% 1 19.08.2026 -
Iñaki Peña Panathinaikos Activo 144 / 132 40% 1 17.08.2026 -
Lautaro Vargas Unión de Santa Fe Activo 124 / 129 40% 1 17.08.2026 -
Michele Šego Hajduk Split Activo 117 / 113 40% 1 14.08.2026 -
Andrews Tetteh Panathinaikos Activo 113 / 128 40% 1 11.08.2026 -
Magnus Jensen FC Midtjylland Activo 116 / 115 40% 1 11.08.2026 -
Guillermo Paiva Junior Activo 103 / 113 40% 1 10.08.2026 -
Alejandro Piedrahita Deportivo Pereira Activo 141 / 117 40% 1 10.08.2026 -
Tadeo Allende Inter Miami CF Activo 142 / 122 40% 2 09.08.2026 -
Tobias Lawal Racing Genk Activo 109 / 119 40% 1 08.08.2026 -
Kelvin Yeboah Minnesota United FC Activo 121 / 123 40% 1 08.08.2026 -
Chris Brady Chicago Fire Activo 109 / 126 40% 1 07.08.2026 -
Joel Canchimbo Barranquilla Activo 110 / 117 40% 1 05.08.2026 -
Jakub Stolarczyk Leicester City Activo 123 / 131 40% 1 02.08.2026 -